createdAt,value
2019-04-14T00:00:20.731Z,16.25
2019-04-14T00:01:19.614Z,16.26
2019-04-14T00:02:20.665Z,16.26
2019-04-14T00:03:19.604Z,16.25
2019-04-14T00:04:20.351Z,16.26
2019-04-14T00:05:19.575Z,16.25
2019-04-14T00:06:20.222Z,16.26
2019-04-14T00:07:20.799Z,16.25
2019-04-14T00:08:19.826Z,16.26
2019-04-14T00:09:20.580Z,16.25
2019-04-14T00:10:20.399Z,16.23
2019-04-14T00:11:19.514Z,16.25
2019-04-14T00:12:20.757Z,16.23
2019-04-14T00:13:19.574Z,16.25
2019-04-14T00:14:20.668Z,16.23
2019-04-14T00:15:29.356Z,16.26
2019-04-14T00:16:20.713Z,16.23
2019-04-14T00:17:19.487Z,16.23
2019-04-14T00:18:19.431Z,16.23
2019-04-14T00:19:19.593Z,16.22
2019-04-14T00:20:20.410Z,16.25
2019-04-14T00:21:19.434Z,16.22
2019-04-14T00:22:20.323Z,16.25
2019-04-14T00:23:19.537Z,16.22
2019-04-14T00:24:20.545Z,16.22
2019-04-14T00:25:19.540Z,16.23
2019-04-14T00:26:20.305Z,16.22
2019-04-14T00:27:19.340Z,16.22
2019-04-14T00:28:19.324Z,16.23
2019-04-14T00:29:19.513Z,16.22
2019-04-14T00:30:19.299Z,16.20
2019-04-14T00:31:19.497Z,16.22
2019-04-14T00:32:20.399Z,16.20
2019-04-14T00:33:19.281Z,16.23
2019-04-14T00:34:20.227Z,16.22
2019-04-14T00:35:19.245Z,16.20
2019-04-14T00:36:19.772Z,16.20
2019-04-14T00:37:20.483Z,16.20
2019-04-14T00:38:19.535Z,16.18
2019-04-14T00:39:20.399Z,16.20
2019-04-14T00:40:19.359Z,16.20
2019-04-14T00:41:20.167Z,16.18
2019-04-14T00:42:19.169Z,16.20
2019-04-14T00:43:19.988Z,16.20
2019-04-14T00:44:19.146Z,16.20
2019-04-14T00:45:32.136Z,16.20
2019-04-14T00:46:21.155Z,16.20
2019-04-14T00:47:20.039Z,16.20
2019-04-14T00:48:20.917Z,16.20
2019-04-14T00:49:20.026Z,16.18
2019-04-14T00:50:19.087Z,16.18
2019-04-14T00:51:19.943Z,16.18
2019-04-14T00:52:19.089Z,16.20
2019-04-14T00:53:19.047Z,16.18
2019-04-14T00:54:19.625Z,16.16
2019-04-14T00:55:19.027Z,16.18
2019-04-14T00:56:19.433Z,16.16
2019-04-14T00:57:19.919Z,16.16
2019-04-14T00:58:19.189Z,16.16
2019-04-14T00:59:20.005Z,16.16
2019-04-14T01:00:20.398Z,16.15
2019-04-14T01:01:19.738Z,16.16
2019-04-14T01:02:18.978Z,16.16
2019-04-14T01:03:19.939Z,16.16
2019-04-14T01:04:18.926Z,16.16
2019-04-14T01:05:19.530Z,16.15
2019-04-14T01:06:18.906Z,16.15
2019-04-14T01:07:19.521Z,16.16
2019-04-14T01:08:18.887Z,16.15
2019-04-14T01:09:19.390Z,16.15
2019-04-14T01:10:19.228Z,16.15
2019-04-14T01:11:18.850Z,16.16
2019-04-14T01:12:19.204Z,16.14
2019-04-14T01:13:20.028Z,16.14
2019-04-14T01:14:19.064Z,16.15
2019-04-14T01:15:20.026Z,16.14
2019-04-14T01:16:21.676Z,16.15
2019-04-14T01:17:19.811Z,16.15
2019-04-14T01:18:19.005Z,16.15
2019-04-14T01:19:19.794Z,16.15
2019-04-14T01:20:18.957Z,16.15
2019-04-14T01:21:19.655Z,16.15
2019-04-14T01:22:18.739Z,16.15
2019-04-14T01:23:19.349Z,16.14
2019-04-14T01:24:18.708Z,16.15
2019-04-14T01:25:19.362Z,16.14
2019-04-14T01:26:18.678Z,16.15
2019-04-14T01:27:18.893Z,16.15
2019-04-14T01:28:18.658Z,16.14
2019-04-14T01:29:18.836Z,16.14
2019-04-14T01:30:19.784Z,16.15
2019-04-14T01:31:18.628Z,16.14
2019-04-14T01:32:19.659Z,16.14
2019-04-14T01:33:18.598Z,16.12
2019-04-14T01:34:19.513Z,16.12
2019-04-14T01:35:18.578Z,16.14
2019-04-14T01:36:19.194Z,16.14
2019-04-14T01:37:18.569Z,16.14
2019-04-14T01:38:19.041Z,16.12
2019-04-14T01:39:19.660Z,16.12
2019-04-14T01:40:18.559Z,16.12
2019-04-14T01:41:19.372Z,16.12
2019-04-14T01:42:18.520Z,16.11
2019-04-14T01:43:18.931Z,16.12
2019-04-14T01:44:18.508Z,16.14
2019-04-14T01:45:18.628Z,16.12
2019-04-14T01:46:25.803Z,16.12
2019-04-14T01:47:20.490Z,16.11
2019-04-14T01:48:19.250Z,16.12
2019-04-14T01:49:18.430Z,16.11
2019-04-14T01:50:19.141Z,16.11
2019-04-14T01:51:18.409Z,16.12
2019-04-14T01:52:18.851Z,16.11
2019-04-14T01:53:18.389Z,16.11
2019-04-14T01:54:19.216Z,16.11
2019-04-14T01:55:18.369Z,16.09
2019-04-14T01:56:18.738Z,16.11
2019-04-14T01:57:18.345Z,16.09
2019-04-14T01:58:18.661Z,16.09
2019-04-14T01:59:18.318Z,16.09
2019-04-14T02:00:18.496Z,16.09
2019-04-14T02:01:19.427Z,16.09
2019-04-14T02:02:18.431Z,16.07
2019-04-14T02:03:19.493Z,16.09
2019-04-14T02:04:18.267Z,16.09
2019-04-14T02:05:19.189Z,16.07
2019-04-14T02:06:18.243Z,16.09
2019-04-14T02:07:19.056Z,16.07
2019-04-14T02:08:18.235Z,16.09
2019-04-14T02:09:18.614Z,16.11
2019-04-14T02:10:19.386Z,16.07
2019-04-14T02:11:18.405Z,16.07
2019-04-14T02:12:19.216Z,16.07
2019-04-14T02:13:18.254Z,16.07
2019-04-14T02:14:19.055Z,16.07
2019-04-14T02:15:18.148Z,16.07
2019-04-14T02:16:26.034Z,16.07
2019-04-14T02:17:19.835Z,16.07
2019-04-14T02:18:18.597Z,16.06
2019-04-14T02:19:18.101Z,16.07
2019-04-14T02:20:18.569Z,16.09
2019-04-14T02:21:19.388Z,16.09
2019-04-14T02:22:18.190Z,16.07
2019-04-14T02:23:19.161Z,16.07
2019-04-14T02:24:18.052Z,16.06
2019-04-14T02:25:18.865Z,16.09
2019-04-14T02:26:18.021Z,16.07
2019-04-14T02:27:18.856Z,16.07
2019-04-14T02:28:18.022Z,16.06
2019-04-14T02:29:18.999Z,16.06
2019-04-14T02:30:24.800Z,16.06
2019-04-14T02:31:35.588Z,16.06
2019-04-14T02:32:51.494Z,16.06
2019-04-14T02:35:50.614Z,16.04
2019-04-14T02:36:48.353Z,16.06
2019-04-14T02:37:58.942Z,16.04
2019-04-14T02:38:47.343Z,16.03
2019-04-14T02:39:48.461Z,16.06
2019-04-14T02:41:57.044Z,16.04
2019-04-14T02:44:47.757Z,16.04
2019-04-14T02:45:59.828Z,16.03
2019-04-14T02:48:55.354Z,16.04
2019-04-14T02:49:51.513Z,16.01
2019-04-14T02:50:40.621Z,16.01
2019-04-14T02:51:42.493Z,16.03
2019-04-14T02:53:00.958Z,16.01
2019-04-14T02:53:50.098Z,16.01
2019-04-14T02:55:49.128Z,16.01
2019-04-14T02:56:45.278Z,16.01
2019-04-14T02:57:49.477Z,16.01
2019-04-14T02:58:55.185Z,16.00
2019-04-14T02:59:45.550Z,16.01
2019-04-14T03:01:55.206Z,16.01
2019-04-14T03:02:44.274Z,16.00
2019-04-14T03:03:43.530Z,16.01
2019-04-14T03:04:44.965Z,16.01
2019-04-14T03:05:54.375Z,16.01
2019-04-14T03:06:41.639Z,16.01
2019-04-14T03:07:46.751Z,16.00
2019-04-14T03:09:47.048Z,16.01
2019-04-14T03:11:47.644Z,16.01
2019-04-14T03:13:45.584Z,16.00
2019-04-14T03:14:47.825Z,16.00
2019-04-14T03:15:47.869Z,16.00
2019-04-14T03:16:53.729Z,16.00
2019-04-14T03:17:47.306Z,15.99
2019-04-14T03:18:47.189Z,15.99
2019-04-14T03:19:59.378Z,15.99
2019-04-14T03:20:39.525Z,15.99
2019-04-14T03:21:40.504Z,15.99
2019-04-14T03:22:48.019Z,15.99
2019-04-14T03:23:51.862Z,15.99
2019-04-14T03:24:33.825Z,15.99
2019-04-14T03:25:37.610Z,15.97
2019-04-14T03:26:45.057Z,15.97
2019-04-14T03:27:47.850Z,15.99
2019-04-14T03:28:46.338Z,15.97
2019-04-14T03:29:43.749Z,15.97
2019-04-14T03:33:11.110Z,15.97
2019-04-14T03:34:59.120Z,15.97
2019-04-14T03:37:59.473Z,15.97
2019-04-14T03:38:50.196Z,15.94
2019-04-14T03:40:53.516Z,15.96
2019-04-14T03:41:45.661Z,15.96
2019-04-14T03:42:47.197Z,15.96
2019-04-14T03:44:56.565Z,15.97
2019-04-14T03:46:04.727Z,15.96
2019-04-14T03:47:44.427Z,15.96
2019-04-14T03:50:02.017Z,15.94
2019-04-14T03:50:47.349Z,15.96
2019-04-14T03:51:52.491Z,15.94
2019-04-14T03:52:50.119Z,15.96
2019-04-14T03:53:47.323Z,15.94
2019-04-14T03:54:33.259Z,15.94
2019-04-14T03:55:28.415Z,15.94
2019-04-14T03:56:19.675Z,15.94
2019-04-14T03:57:17.209Z,15.94
2019-04-14T03:58:18.132Z,15.93
2019-04-14T03:59:17.546Z,15.94
2019-04-14T04:00:17.874Z,15.94
2019-04-14T04:01:17.283Z,15.94
2019-04-14T04:02:18.194Z,15.94
2019-04-14T04:03:17.352Z,15.94
2019-04-14T04:04:18.246Z,15.93
2019-04-14T04:05:17.413Z,15.93
2019-04-14T04:06:18.129Z,15.93
2019-04-14T04:07:17.126Z,15.93
2019-04-14T04:08:17.928Z,15.94
2019-04-14T04:09:17.109Z,15.93
2019-04-14T04:10:17.888Z,15.94
2019-04-14T04:11:17.184Z,15.93
2019-04-14T04:12:18.167Z,15.94
2019-04-14T04:13:17.214Z,15.94
2019-04-14T04:14:18.068Z,15.93
2019-04-14T04:15:17.065Z,15.93
2019-04-14T04:16:17.964Z,15.93
2019-04-14T04:17:16.884Z,15.94
2019-04-14T04:18:17.759Z,15.93
2019-04-14T04:19:18.279Z,15.93
2019-04-14T04:20:17.408Z,15.93
2019-04-14T04:21:16.766Z,15.93
2019-04-14T04:22:17.175Z,15.93
2019-04-14T04:23:16.742Z,15.93
2019-04-14T04:24:17.056Z,15.93
2019-04-14T04:25:16.738Z,15.93
2019-04-14T04:26:16.932Z,15.93
2019-04-14T04:27:17.771Z,15.92
2019-04-14T04:28:16.749Z,15.92
2019-04-14T04:29:17.832Z,15.93
2019-04-14T04:30:16.676Z,15.92
2019-04-14T04:31:17.606Z,15.89
2019-04-14T04:32:16.659Z,15.89
2019-04-14T04:33:17.647Z,15.92
2019-04-14T04:34:16.621Z,15.92
2019-04-14T04:35:17.485Z,15.92
2019-04-14T04:36:16.602Z,15.89
2019-04-14T04:37:17.116Z,15.92
2019-04-14T04:38:16.576Z,15.92
2019-04-14T04:39:17.089Z,15.92
2019-04-14T04:40:17.844Z,15.92
2019-04-14T04:41:16.892Z,15.92
2019-04-14T04:42:17.564Z,15.92
2019-04-14T04:43:16.879Z,15.89
2019-04-14T04:44:16.508Z,15.92
2019-04-14T04:45:17.092Z,15.92
2019-04-14T04:46:17.595Z,15.89
2019-04-14T04:47:16.685Z,15.88
2019-04-14T04:48:17.411Z,15.89
2019-04-14T04:49:21.805Z,15.89
2019-04-14T04:50:17.717Z,15.92
2019-04-14T04:51:16.437Z,15.88
2019-04-14T04:52:17.309Z,15.89
2019-04-14T04:53:16.427Z,15.92
2019-04-14T04:54:16.848Z,15.88
2019-04-14T04:55:17.644Z,15.89
2019-04-14T04:56:16.577Z,15.89
2019-04-14T04:57:16.368Z,15.89
2019-04-14T04:58:17.345Z,15.89
2019-04-14T04:59:17.083Z,15.89
2019-04-14T05:00:16.338Z,15.92
2019-04-14T05:01:16.727Z,15.88
2019-04-14T05:02:17.615Z,15.89
2019-04-14T05:03:16.865Z,15.89
2019-04-14T05:04:17.312Z,15.89
2019-04-14T05:05:16.635Z,15.88
2019-04-14T05:06:19.280Z,15.89
2019-04-14T05:07:16.667Z,15.92
2019-04-14T05:08:17.321Z,15.92
2019-04-14T05:09:16.618Z,15.92
2019-04-14T05:10:17.386Z,15.92
2019-04-14T05:11:16.542Z,15.89
2019-04-14T05:12:17.316Z,15.89
2019-04-14T05:13:16.208Z,15.92
2019-04-14T05:14:17.247Z,15.92
2019-04-14T05:15:16.260Z,15.92
2019-04-14T05:16:17.076Z,15.92
2019-04-14T05:17:16.968Z,15.92
2019-04-14T05:18:16.138Z,15.92
2019-04-14T05:19:24.694Z,15.89
2019-04-14T05:20:18.054Z,15.93
2019-04-14T05:21:17.082Z,15.92
2019-04-14T05:22:18.224Z,15.92
2019-04-14T05:23:17.000Z,15.92
2019-04-14T05:24:16.070Z,15.92
2019-04-14T05:25:16.767Z,15.89
2019-04-14T05:26:16.059Z,15.93
2019-04-14T05:27:16.726Z,15.93
2019-04-14T05:28:16.038Z,15.93
2019-04-14T05:29:16.756Z,15.93
2019-04-14T05:30:16.011Z,15.93
2019-04-14T05:31:16.458Z,15.93
2019-04-14T05:32:17.292Z,15.93
2019-04-14T05:33:16.281Z,15.94
2019-04-14T05:34:17.226Z,15.93
2019-04-14T05:35:16.197Z,15.96
2019-04-14T05:36:16.889Z,15.93
2019-04-14T05:37:16.111Z,15.94
2019-04-14T05:38:16.943Z,15.96
2019-04-14T05:39:15.924Z,15.96
2019-04-14T05:40:16.787Z,15.97
2019-04-14T05:41:15.936Z,15.97
2019-04-14T05:42:20.978Z,15.99
2019-04-14T05:43:28.290Z,15.99
2019-04-14T05:44:16.849Z,15.99
2019-04-14T05:45:15.843Z,15.99
2019-04-14T05:46:16.338Z,15.99
2019-04-14T05:47:15.841Z,15.99
2019-04-14T05:48:16.082Z,15.97
2019-04-14T05:49:29.566Z,15.97
2019-04-14T05:50:17.831Z,15.99
2019-04-14T05:51:18.906Z,15.99
2019-04-14T05:52:16.375Z,15.99
2019-04-14T05:53:15.758Z,15.99
2019-04-14T05:54:16.327Z,15.99
2019-04-14T05:55:15.740Z,15.99
2019-04-14T05:56:16.447Z,16.00
2019-04-14T05:57:15.707Z,16.00
2019-04-14T05:58:16.423Z,16.00
2019-04-14T05:59:15.688Z,16.00
2019-04-14T06:00:16.719Z,16.01
2019-04-14T06:01:16.078Z,16.01
2019-04-14T06:02:15.971Z,16.01
2019-04-14T06:03:16.661Z,16.00
2019-04-14T06:04:15.735Z,16.00
2019-04-14T06:05:16.600Z,16.01
2019-04-14T06:06:15.615Z,16.00
2019-04-14T06:07:15.610Z,16.01
2019-04-14T06:08:15.594Z,16.01
2019-04-14T06:09:15.572Z,16.03
2019-04-14T06:10:15.582Z,16.03
2019-04-14T06:11:15.571Z,16.03
2019-04-14T06:12:15.560Z,16.04
2019-04-14T06:13:15.531Z,16.06
2019-04-14T06:14:15.528Z,16.04
2019-04-14T06:15:15.511Z,16.04
2019-04-14T06:16:15.503Z,16.04
2019-04-14T06:17:15.504Z,16.06
2019-04-14T06:18:15.479Z,16.04
2019-04-14T06:19:15.476Z,16.06
2019-04-14T06:20:15.460Z,16.06
2019-04-14T06:21:15.440Z,16.06
2019-04-14T06:22:15.451Z,16.04
2019-04-14T06:23:15.421Z,16.07
2019-04-14T06:24:15.412Z,16.06
2019-04-14T06:25:15.401Z,16.04
2019-04-14T06:26:15.391Z,16.06
2019-04-14T06:27:15.401Z,16.07
2019-04-14T06:28:15.362Z,16.06
2019-04-14T06:29:15.351Z,16.06
2019-04-14T06:30:15.349Z,16.06
2019-04-14T06:31:15.341Z,16.04
2019-04-14T06:32:15.371Z,16.04
2019-04-14T06:33:15.311Z,16.06
2019-04-14T06:34:15.301Z,16.07
2019-04-14T06:35:15.291Z,16.06
2019-04-14T06:36:15.276Z,16.07
2019-04-14T06:37:15.282Z,16.07
2019-04-14T06:38:15.261Z,16.09
2019-04-14T06:39:15.252Z,16.09
2019-04-14T06:40:15.231Z,16.11
2019-04-14T06:41:15.222Z,16.11
2019-04-14T06:42:15.241Z,16.11
2019-04-14T06:43:15.212Z,16.12
2019-04-14T06:44:15.193Z,16.12
2019-04-14T06:45:15.182Z,16.12
2019-04-14T06:46:15.170Z,16.14
2019-04-14T06:47:15.172Z,16.15
2019-04-14T06:48:15.165Z,16.15
2019-04-14T06:49:15.132Z,16.15
2019-04-14T06:50:15.132Z,16.14
2019-04-14T06:51:15.114Z,16.15
2019-04-14T06:52:15.114Z,16.18
2019-04-14T06:53:15.092Z,16.18
2019-04-14T06:54:15.082Z,16.23
2019-04-14T06:55:15.074Z,16.23
2019-04-14T06:56:15.061Z,16.26
2019-04-14T06:57:15.072Z,16.27
2019-04-14T06:58:15.054Z,16.31
2019-04-14T06:59:15.072Z,16.35
2019-04-14T07:00:15.023Z,16.35
2019-04-14T07:01:15.002Z,16.38
2019-04-14T07:02:15.044Z,16.41
2019-04-14T07:03:15.014Z,16.42
2019-04-14T07:04:14.973Z,16.45
2019-04-14T07:05:14.971Z,16.48
2019-04-14T07:06:14.952Z,16.48
2019-04-14T07:07:14.948Z,16.52
2019-04-14T07:08:14.942Z,16.53
2019-04-14T07:09:14.914Z,16.56
2019-04-14T07:10:14.902Z,16.59
2019-04-14T07:11:14.912Z,16.60
2019-04-14T07:12:14.975Z,16.63
2019-04-14T07:13:14.902Z,16.65
2019-04-14T07:14:14.864Z,16.68
2019-04-14T07:15:14.853Z,16.70
2019-04-14T07:16:14.840Z,16.73
2019-04-14T07:17:14.842Z,16.75
2019-04-14T07:18:14.848Z,16.78
2019-04-14T07:19:14.812Z,16.80
2019-04-14T07:20:14.802Z,16.81
2019-04-14T07:21:14.783Z,16.83
2019-04-14T07:22:14.772Z,16.85
2019-04-14T07:23:14.779Z,16.86
2019-04-14T07:24:14.770Z,16.90
2019-04-14T07:25:14.744Z,16.90
2019-04-14T07:26:14.733Z,16.93
2019-04-14T07:27:14.723Z,16.92
2019-04-14T07:28:14.723Z,16.90
2019-04-14T07:29:14.925Z,16.92
2019-04-14T07:30:14.694Z,16.92
2019-04-14T07:31:14.673Z,16.93
2019-04-14T07:32:14.664Z,16.95
2019-04-14T07:33:14.687Z,16.96
2019-04-14T07:34:14.652Z,16.98
2019-04-14T07:35:14.723Z,16.99
2019-04-14T07:36:14.654Z,17.00
2019-04-14T07:37:14.604Z,17.00
2019-04-14T07:38:14.604Z,16.99
2019-04-14T07:39:14.599Z,16.98
2019-04-14T07:40:14.574Z,16.98
2019-04-14T07:41:14.564Z,17.00
2019-04-14T07:42:14.563Z,17.00
2019-04-14T07:43:14.543Z,17.06
2019-04-14T07:44:15.033Z,17.06
2019-04-14T07:45:14.526Z,17.06
2019-04-14T07:46:14.906Z,17.08
2019-04-14T07:47:14.503Z,17.13
2019-04-14T07:48:14.506Z,17.17
2019-04-14T07:49:14.495Z,17.17
2019-04-14T07:50:15.290Z,17.17
2019-04-14T07:51:14.474Z,17.20
2019-04-14T07:52:14.454Z,17.25
2019-04-14T07:53:14.444Z,17.28
2019-04-14T07:54:14.443Z,17.35
2019-04-14T07:55:14.418Z,17.38
2019-04-14T07:56:14.404Z,17.40
2019-04-14T07:57:14.394Z,17.36
2019-04-14T07:58:14.389Z,17.36
2019-04-14T07:59:14.394Z,17.41
2019-04-14T08:00:14.364Z,17.44
2019-04-14T08:01:14.343Z,17.50
2019-04-14T08:02:14.335Z,17.54
2019-04-14T08:03:14.336Z,17.59
2019-04-14T08:04:14.334Z,17.62
2019-04-14T08:05:14.314Z,17.55
2019-04-14T08:06:14.294Z,17.53
2019-04-14T08:07:14.284Z,17.54
2019-04-14T08:08:14.275Z,17.54
2019-04-14T08:09:14.272Z,17.59
2019-04-14T08:10:14.250Z,17.64
2019-04-14T08:11:14.234Z,17.62
2019-04-14T08:12:14.225Z,17.67
2019-04-14T08:13:14.215Z,17.66
2019-04-14T08:14:14.231Z,17.66
2019-04-14T08:15:14.195Z,17.64
2019-04-14T08:16:14.195Z,17.62
2019-04-14T08:17:14.185Z,17.57
2019-04-14T08:18:14.158Z,17.57
2019-04-14T08:19:14.154Z,17.54
2019-04-14T08:20:26.447Z,17.53
2019-04-14T08:21:15.137Z,17.51
2019-04-14T08:22:14.114Z,17.50
2019-04-14T08:23:14.116Z,17.51
2019-04-14T08:24:14.095Z,17.51
2019-04-14T08:25:14.117Z,17.50
2019-04-14T08:26:14.079Z,17.48
2019-04-14T08:27:14.063Z,17.54
2019-04-14T08:28:14.047Z,17.67
2019-04-14T08:29:14.035Z,17.63
2019-04-14T08:30:14.045Z,17.59
2019-04-14T08:31:14.017Z,17.57
2019-04-14T08:32:14.010Z,17.55
2019-04-14T08:33:14.015Z,17.54
2019-04-14T08:34:13.985Z,17.54
2019-04-14T08:35:13.985Z,17.59
2019-04-14T08:36:13.956Z,17.66
2019-04-14T08:37:13.956Z,17.73
2019-04-14T08:38:14.384Z,17.81
2019-04-14T08:39:13.946Z,17.85
2019-04-14T08:40:13.936Z,17.84
2019-04-14T08:41:13.907Z,17.88
2019-04-14T08:42:13.909Z,17.92
2019-04-14T08:43:13.886Z,18.00
2019-04-14T08:44:13.892Z,18.00
2019-04-14T08:45:13.878Z,18.03
2019-04-14T08:46:13.880Z,18.04
2019-04-14T08:47:13.854Z,18.10
2019-04-14T08:48:13.835Z,18.15
2019-04-14T08:49:13.827Z,18.13
2019-04-14T08:50:13.826Z,18.12
2019-04-14T08:51:13.796Z,18.09
2019-04-14T08:52:13.787Z,18.07
2019-04-14T08:53:13.789Z,18.09
2019-04-14T08:54:13.767Z,18.17
2019-04-14T08:55:13.936Z,18.18
2019-04-14T08:56:13.800Z,18.25
2019-04-14T08:57:13.843Z,18.31
2019-04-14T08:58:13.753Z,18.36
2019-04-14T08:59:13.852Z,18.40
2019-04-14T09:00:13.971Z,18.42
2019-04-14T09:01:13.709Z,18.42
2019-04-14T09:02:13.689Z,18.43
2019-04-14T09:03:13.676Z,18.42
2019-04-14T09:04:13.657Z,18.44
2019-04-14T09:05:13.669Z,18.54
2019-04-14T09:06:13.637Z,18.55
2019-04-14T09:07:13.627Z,18.59
2019-04-14T09:08:13.627Z,18.58
2019-04-14T09:09:13.607Z,18.64
2019-04-14T09:10:13.600Z,18.72
2019-04-14T09:11:13.608Z,18.73
2019-04-14T09:12:15.744Z,18.77
2019-04-14T09:13:13.578Z,18.82
2019-04-14T09:14:13.557Z,18.87
2019-04-14T09:15:13.558Z,18.92
2019-04-14T09:16:13.528Z,18.97
2019-04-14T09:17:13.528Z,19.01
2019-04-14T09:18:13.518Z,18.99
2019-04-14T09:19:13.499Z,19.05
2019-04-14T09:20:13.489Z,19.10
2019-04-14T09:21:13.488Z,19.11
2019-04-14T09:22:13.458Z,19.13
2019-04-14T09:23:13.613Z,19.14
2019-04-14T09:24:13.440Z,19.08
2019-04-14T09:25:13.429Z,19.08
2019-04-14T09:26:13.428Z,19.11
2019-04-14T09:27:13.414Z,19.06
2019-04-14T09:28:13.583Z,19.02
2019-04-14T09:29:13.398Z,19.05
2019-04-14T09:30:13.378Z,19.01
2019-04-14T09:31:13.382Z,19.01
2019-04-14T09:32:13.350Z,18.98
2019-04-14T09:33:13.348Z,18.98
2019-04-14T09:34:13.329Z,18.99
2019-04-14T09:35:13.320Z,18.99
2019-04-14T09:36:13.328Z,18.99
2019-04-14T09:37:13.301Z,18.97
2019-04-14T09:38:13.289Z,18.92
2019-04-14T09:39:13.270Z,18.91
2019-04-14T09:40:13.290Z,18.87
2019-04-14T09:41:13.269Z,18.84
2019-04-14T09:42:13.249Z,18.84
2019-04-14T09:43:13.250Z,18.90
2019-04-14T09:44:13.219Z,18.97
2019-04-14T09:45:13.210Z,18.95
2019-04-14T09:46:13.230Z,18.92
2019-04-14T09:47:13.189Z,18.91
2019-04-14T09:48:13.189Z,18.92
2019-04-14T09:49:13.170Z,18.91
2019-04-14T09:50:13.160Z,18.90
2019-04-14T09:51:13.365Z,18.86
2019-04-14T09:52:13.148Z,18.83
2019-04-14T09:53:13.122Z,18.82
2019-04-14T09:54:13.111Z,18.80
2019-04-14T09:55:13.104Z,18.79
2019-04-14T09:56:13.145Z,18.80
2019-04-14T09:57:13.110Z,18.77
2019-04-14T09:58:13.071Z,18.77
2019-04-14T09:59:13.071Z,18.77
2019-04-14T10:00:13.065Z,18.74
2019-04-14T10:01:13.030Z,18.70
2019-04-14T10:02:13.051Z,18.67
2019-04-14T10:03:13.031Z,18.65
2019-04-14T10:04:13.003Z,18.62
2019-04-14T10:05:12.992Z,18.62
2019-04-14T10:06:12.981Z,18.59
2019-04-14T10:07:13.000Z,18.57
2019-04-14T10:08:12.973Z,18.57
2019-04-14T10:09:12.955Z,18.57
2019-04-14T10:10:12.942Z,18.52
2019-04-14T10:11:12.931Z,18.50
2019-04-14T10:12:12.934Z,18.50
2019-04-14T10:13:12.902Z,18.50
2019-04-14T10:14:12.903Z,18.50
2019-04-14T10:15:12.902Z,18.52
2019-04-14T10:16:12.873Z,18.50
2019-04-14T10:17:12.875Z,18.50
2019-04-14T10:18:12.882Z,18.46
2019-04-14T10:19:12.844Z,18.43
2019-04-14T10:20:12.831Z,18.40
2019-04-14T10:21:17.585Z,18.40
2019-04-14T10:22:13.832Z,18.42
2019-04-14T10:23:12.793Z,18.37
2019-04-14T10:24:12.792Z,18.36
2019-04-14T10:25:12.783Z,18.34
2019-04-14T10:26:12.773Z,18.34
2019-04-14T10:27:12.773Z,18.33
2019-04-14T10:28:12.743Z,18.33
2019-04-14T10:29:12.734Z,18.33
2019-04-14T10:30:12.765Z,18.31
2019-04-14T10:31:12.845Z,18.29
2019-04-14T10:32:12.756Z,18.29
2019-04-14T10:33:12.764Z,18.28
2019-04-14T10:34:12.768Z,18.28
2019-04-14T10:35:12.683Z,18.28
2019-04-14T10:36:12.704Z,18.28
2019-04-14T10:37:12.664Z,18.27
2019-04-14T10:38:12.659Z,18.25
2019-04-14T10:39:12.624Z,18.22
2019-04-14T10:40:12.614Z,18.22
2019-04-14T10:41:12.614Z,18.22
2019-04-14T10:42:12.594Z,18.22
2019-04-14T10:43:12.611Z,18.21
2019-04-14T10:44:12.715Z,18.19
2019-04-14T10:45:12.582Z,18.18
2019-04-14T10:46:12.548Z,18.18
2019-04-14T10:47:12.537Z,18.18
2019-04-14T10:48:12.544Z,18.18
2019-04-14T10:49:12.535Z,18.18
2019-04-14T10:50:12.526Z,18.17
2019-04-14T10:51:12.494Z,18.29
2019-04-14T10:52:12.477Z,16.78
2019-04-14T10:53:12.490Z,15.45
2019-04-14T10:54:12.487Z,14.24
2019-04-14T10:55:12.476Z,13.11
2019-04-14T10:56:12.444Z,12.37
2019-04-14T10:57:12.483Z,11.49
2019-04-14T10:58:12.426Z,11.17
2019-04-14T10:59:12.405Z,10.92
2019-04-14T11:00:12.396Z,10.58
2019-04-14T11:01:12.389Z,10.24
2019-04-14T11:02:12.366Z,10.04
2019-04-14T11:03:12.375Z,10.03
2019-04-14T11:04:12.349Z,10.00
2019-04-14T11:05:12.360Z,9.94
2019-04-14T11:06:12.366Z,9.64
2019-04-14T11:07:12.325Z,9.60
2019-04-14T11:08:12.316Z,9.40
2019-04-14T11:09:12.317Z,9.42
2019-04-14T11:10:12.300Z,9.49
2019-04-14T11:11:12.276Z,9.57
2019-04-14T11:12:12.276Z,9.60
2019-04-14T11:13:12.278Z,9.60
2019-04-14T11:14:12.246Z,9.43
2019-04-14T11:15:12.256Z,9.31
2019-04-14T11:16:12.235Z,9.13
2019-04-14T11:17:12.207Z,8.99
2019-04-14T11:18:12.206Z,8.91
2019-04-14T11:19:12.202Z,8.91
2019-04-14T11:20:12.165Z,8.93
2019-04-14T11:21:12.162Z,8.97
2019-04-14T11:22:12.146Z,8.99
2019-04-14T11:23:12.147Z,8.99
2019-04-14T11:24:12.136Z,8.91
2019-04-14T11:25:12.125Z,8.91
2019-04-14T11:26:12.142Z,8.99
2019-04-14T11:27:12.098Z,8.97
2019-04-14T11:28:12.093Z,9.05
2019-04-14T11:29:12.075Z,9.01
2019-04-14T11:30:12.064Z,8.87
2019-04-14T11:31:12.077Z,8.83
2019-04-14T11:32:12.055Z,8.78
2019-04-14T11:33:12.051Z,8.75
2019-04-14T11:34:12.028Z,8.73
2019-04-14T11:35:12.012Z,8.76
2019-04-14T11:36:12.008Z,8.72
2019-04-14T11:37:11.996Z,8.68
2019-04-14T11:38:11.997Z,8.63
2019-04-14T11:39:11.999Z,8.66
2019-04-14T11:40:11.959Z,8.68
2019-04-14T11:41:11.939Z,8.78
2019-04-14T11:42:11.946Z,8.87
2019-04-14T11:43:11.946Z,8.93
2019-04-14T11:44:11.960Z,8.94
2019-04-14T11:45:11.906Z,8.96
2019-04-14T11:46:11.894Z,8.96
2019-04-14T11:47:11.897Z,8.96
2019-04-14T11:48:11.874Z,8.72
2019-04-14T11:49:11.892Z,8.69
2019-04-14T11:50:11.859Z,8.65
2019-04-14T11:51:11.835Z,8.68
2019-04-14T11:52:11.822Z,8.63
2019-04-14T11:53:11.813Z,8.60
2019-04-14T11:54:11.818Z,8.50
2019-04-14T11:55:11.798Z,8.50
2019-04-14T11:56:11.789Z,8.44
2019-04-14T11:57:11.777Z,8.33
2019-04-14T11:58:11.767Z,8.29
2019-04-14T11:59:11.767Z,8.29
2019-04-14T12:00:11.776Z,8.35
2019-04-14T12:01:11.886Z,8.35
2019-04-14T12:02:11.703Z,8.40
2019-04-14T12:03:11.694Z,8.55
2019-04-14T12:04:11.705Z,8.60
2019-04-14T12:05:11.686Z,8.62
2019-04-14T12:06:11.685Z,8.65
2019-04-14T12:07:11.666Z,8.75
2019-04-14T12:08:11.643Z,8.79
2019-04-14T12:09:11.646Z,8.73
2019-04-14T12:10:11.624Z,8.75
2019-04-14T12:11:11.616Z,8.76
2019-04-14T12:12:11.616Z,8.84
2019-04-14T12:13:11.624Z,8.90
2019-04-14T12:14:11.594Z,8.94
2019-04-14T12:15:15.933Z,8.86
2019-04-14T12:16:11.567Z,8.71
2019-04-14T12:17:11.543Z,8.69
2019-04-14T12:18:11.559Z,8.72
2019-04-14T12:19:11.538Z,8.69
2019-04-14T12:20:11.514Z,8.68
2019-04-14T12:21:11.511Z,8.73
2019-04-14T12:22:11.496Z,8.76
2019-04-14T12:23:11.505Z,8.81
2019-04-14T12:24:11.496Z,8.84
2019-04-14T12:25:11.459Z,8.93
2019-04-14T12:26:11.443Z,8.93
2019-04-14T12:27:11.479Z,8.87
2019-04-14T12:28:11.446Z,8.75
2019-04-14T12:29:11.826Z,8.79
2019-04-14T12:30:11.422Z,8.86
2019-04-14T12:31:11.406Z,8.79
2019-04-14T12:32:11.386Z,8.81
2019-04-14T12:33:11.372Z,8.86
2019-04-14T12:34:11.372Z,8.84
2019-04-14T12:35:11.369Z,8.91
2019-04-14T12:36:11.332Z,8.97
2019-04-14T12:37:11.352Z,9.01
2019-04-14T12:38:11.312Z,8.91
2019-04-14T12:39:11.391Z,8.87
2019-04-14T12:40:11.314Z,8.88
2019-04-14T12:41:12.508Z,8.88
2019-04-14T12:42:11.271Z,8.91
2019-04-14T12:43:11.288Z,8.90
2019-04-14T12:44:11.254Z,8.84
2019-04-14T12:45:11.307Z,8.83
2019-04-14T12:46:11.242Z,8.86
2019-04-14T12:47:11.224Z,8.90
2019-04-14T12:48:11.223Z,8.99
2019-04-14T12:49:11.202Z,9.15
2019-04-14T12:50:11.203Z,9.25
2019-04-14T12:51:11.171Z,9.31
2019-04-14T12:52:20.515Z,9.35
2019-04-14T12:53:12.160Z,9.42
2019-04-14T12:54:13.896Z,9.48
2019-04-14T12:55:11.141Z,9.45
2019-04-14T12:56:11.122Z,9.28
2019-04-14T12:57:11.134Z,9.34
2019-04-14T12:58:11.413Z,9.30
2019-04-14T12:59:11.081Z,9.30
2019-04-14T13:00:11.374Z,9.30
2019-04-14T13:01:11.081Z,9.30
2019-04-14T13:02:11.441Z,9.38
2019-04-14T13:03:11.049Z,9.34
2019-04-14T13:04:11.029Z,9.30
2019-04-14T13:05:11.033Z,9.23
2019-04-14T13:06:11.021Z,9.18
2019-04-14T13:07:11.011Z,9.15
2019-04-14T13:08:10.982Z,9.05
2019-04-14T13:09:10.982Z,9.02
2019-04-14T13:10:10.960Z,9.02
2019-04-14T13:11:10.961Z,8.97
2019-04-14T13:12:10.939Z,8.87
2019-04-14T13:13:10.979Z,8.87
2019-04-14T13:14:10.931Z,8.73
2019-04-14T13:15:10.922Z,8.72
2019-04-14T13:16:10.921Z,8.73
2019-04-14T13:17:10.881Z,8.76
2019-04-14T13:18:10.878Z,8.79